sensor_id;sensor_type;location;lat;lon;timestamp;temperature;humidity
66871;DHT22;53780;44.998;9.926;2023-06-04T00:00:57;19.98;76.83
66871;DHT22;53780;44.998;9.926;2023-06-04T00:04:02;20.04;76.75
66871;DHT22;53780;44.998;9.926;2023-06-04T00:07:05;19.97;76.95
66871;DHT22;53780;44.998;9.926;2023-06-04T00:10:10;19.89;77.45
66871;DHT22;53780;44.998;9.926;2023-06-04T00:13:14;19.84;77.67
66871;DHT22;53780;44.998;9.926;2023-06-04T00:16:17;19.93;77.21
66871;DHT22;53780;44.998;9.926;2023-06-04T00:19:22;19.89;77.25
66871;DHT22;53780;44.998;9.926;2023-06-04T00:22:26;19.86;77.52
66871;DHT22;53780;44.998;9.926;2023-06-04T00:25:31;19.90;77.23
66871;DHT22;53780;44.998;9.926;2023-06-04T00:28:35;19.98;76.83
66871;DHT22;53780;44.998;9.926;2023-06-04T00:31:38;19.94;76.93
66871;DHT22;53780;44.998;9.926;2023-06-04T00:34:42;19.94;76.98
66871;DHT22;53780;44.998;9.926;2023-06-04T00:37:46;19.93;77.31
66871;DHT22;53780;44.998;9.926;2023-06-04T00:40:50;19.97;76.92
66871;DHT22;53780;44.998;9.926;2023-06-04T00:43:54;19.90;77.33
66871;DHT22;53780;44.998;9.926;2023-06-04T00:47:02;19.96;77.02
66871;DHT22;53780;44.998;9.926;2023-06-04T00:50:06;19.89;77.33
66871;DHT22;53780;44.998;9.926;2023-06-04T00:53:11;19.90;77.27
66871;DHT22;53780;44.998;9.926;2023-06-04T00:56:15;19.87;77.27
66871;DHT22;53780;44.998;9.926;2023-06-04T00:59:19;19.76;77.56
66871;DHT22;53780;44.998;9.926;2023-06-04T01:02:23;19.74;77.78
66871;DHT22;53780;44.998;9.926;2023-06-04T01:05:57;19.73;77.84
66871;DHT22;53780;44.998;9.926;2023-06-04T01:09:05;19.77;77.63
66871;DHT22;53780;44.998;9.926;2023-06-04T01:12:10;19.74;77.82
66871;DHT22;53780;44.998;9.926;2023-06-04T01:15:14;19.73;77.93
66871;DHT22;53780;44.998;9.926;2023-06-04T01:18:25;19.86;77.50
66871;DHT22;53780;44.998;9.926;2023-06-04T01:21:34;19.89;77.18
66871;DHT22;53780;44.998;9.926;2023-06-04T01:24:41;19.77;77.57
66871;DHT22;53780;44.998;9.926;2023-06-04T01:27:54;19.71;77.99
66871;DHT22;53780;44.998;9.926;2023-06-04T01:30:59;19.66;78.00
66871;DHT22;53780;44.998;9.926;2023-06-04T01:34:07;19.69;77.89
66871;DHT22;53780;44.998;9.926;2023-06-04T01:37:11;19.60;78.30
66871;DHT22;53780;44.998;9.926;2023-06-04T01:40:15;19.56;78.53
66871;DHT22;53780;44.998;9.926;2023-06-04T01:43:19;19.65;78.27
66871;DHT22;53780;44.998;9.926;2023-06-04T01:46:23;19.65;78.11
66871;DHT22;53780;44.998;9.926;2023-06-04T01:49:27;19.58;78.38
66871;DHT22;53780;44.998;9.926;2023-06-04T01:52:31;19.50;78.76
66871;DHT22;53780;44.998;9.926;2023-06-04T01:55:35;19.43;79.01
66871;DHT22;53780;44.998;9.926;2023-06-04T01:58:41;19.41;79.25
66871;DHT22;53780;44.998;9.926;2023-06-04T02:01:45;19.42;79.28
66871;DHT22;53780;44.998;9.926;2023-06-04T02:04:49;19.42;79.42
66871;DHT22;53780;44.998;9.926;2023-06-04T02:07:55;19.48;79.10
66871;DHT22;53780;44.998;9.926;2023-06-04T02:11:01;19.49;79.22
66871;DHT22;53780;44.998;9.926;2023-06-04T02:14:04;19.48;79.12
66871;DHT22;53780;44.998;9.926;2023-06-04T02:17:08;19.31;79.80
66871;DHT22;53780;44.998;9.926;2023-06-04T02:20:20;19.24;80.35
66871;DHT22;53780;44.998;9.926;2023-06-04T02:23:24;19.22;80.50
66871;DHT22;53780;44.998;9.926;2023-06-04T02:26:27;19.25;80.61
66871;DHT22;53780;44.998;9.926;2023-06-04T02:29:32;19.26;80.57
66871;DHT22;53780;44.998;9.926;2023-06-04T02:32:35;19.22;80.85
66871;DHT22;53780;44.998;9.926;2023-06-04T02:35:39;19.21;81.10
66871;DHT22;53780;44.998;9.926;2023-06-04T02:38:44;19.25;81.00
66871;DHT22;53780;44.998;9.926;2023-06-04T02:41:48;19.24;81.08
66871;DHT22;53780;44.998;9.926;2023-06-04T02:44:52;19.31;80.74
66871;DHT22;53780;44.998;9.926;2023-06-04T02:47:56;19.25;80.98
66871;DHT22;53780;44.998;9.926;2023-06-04T02:51:00;19.18;81.29
66871;DHT22;53780;44.998;9.926;2023-06-04T02:54:05;19.12;81.71
66871;DHT22;53780;44.998;9.926;2023-06-04T02:57:08;19.05;81.63
66871;DHT22;53780;44.998;9.926;2023-06-04T03:00:13;18.97;81.78
66871;DHT22;53780;44.998;9.926;2023-06-04T03:03:17;19.01;81.63
66871;DHT22;53780;44.998;9.926;2023-06-04T03:06:22;18.97;81.34
66871;DHT22;53780;44.998;9.926;2023-06-04T03:09:26;18.91;81.15
66871;DHT22;53780;44.998;9.926;2023-06-04T03:12:30;18.78;81.35
66871;DHT22;53780;44.998;9.926;2023-06-04T03:15:34;18.73;81.56
66871;DHT22;53780;44.998;9.926;2023-06-04T03:18:41;18.63;81.66
66871;DHT22;53780;44.998;9.926;2023-06-04T03:21:45;18.53;81.71
66871;DHT22;53780;44.998;9.926;2023-06-04T03:24:49;18.45;81.55
66871;DHT22;53780;44.998;9.926;2023-06-04T03:27:53;18.32;81.94
66871;DHT22;53780;44.998;9.926;2023-06-04T03:30:57;18.36;81.98
66871;DHT22;53780;44.998;9.926;2023-06-04T03:34:03;18.32;82.12
66871;DHT22;53780;44.998;9.926;2023-06-04T03:37:07;18.25;82.49
66871;DHT22;53780;44.998;9.926;2023-06-04T03:40:11;18.24;82.95
66871;DHT22;53780;44.998;9.926;2023-06-04T03:43:21;18.16;83.20
66871;DHT22;53780;44.998;9.926;2023-06-04T03:46:28;18.15;83.17
66871;DHT22;53780;44.998;9.926;2023-06-04T03:49:38;18.15;83.32
66871;DHT22;53780;44.998;9.926;2023-06-04T03:52:42;18.16;83.45
66871;DHT22;53780;44.998;9.926;2023-06-04T03:55:46;18.15;83.55
66871;DHT22;53780;44.998;9.926;2023-06-04T03:58:50;18.13;83.13
66871;DHT22;53780;44.998;9.926;2023-06-04T04:01:54;18.11;83.19
66871;DHT22;53780;44.998;9.926;2023-06-04T04:04:58;18.09;83.14
66871;DHT22;53780;44.998;9.926;2023-06-04T04:08:04;18.06;83.48
66871;DHT22;53780;44.998;9.926;2023-06-04T04:11:12;18.04;83.63
66871;DHT22;53780;44.998;9.926;2023-06-04T04:14:16;18.04;83.74
66871;DHT22;53780;44.998;9.926;2023-06-04T04:17:21;18.11;83.83
66871;DHT22;53780;44.998;9.926;2023-06-04T04:20:24;18.19;83.99
66871;DHT22;53780;44.998;9.926;2023-06-04T04:23:38;18.26;83.81
66871;DHT22;53780;44.998;9.926;2023-06-04T04:26:46;18.29;83.95
66871;DHT22;53780;44.998;9.926;2023-06-04T04:29:52;18.33;83.94
66871;DHT22;53780;44.998;9.926;2023-06-04T04:33:04;18.40;83.92
66871;DHT22;53780;44.998;9.926;2023-06-04T04:36:20;18.57;83.70
66871;DHT22;53780;44.998;9.926;2023-06-04T04:39:25;18.70;83.11
66871;DHT22;53780;44.998;9.926;2023-06-04T04:42:31;18.87;83.12
66871;DHT22;53780;44.998;9.926;2023-06-04T04:45:37;19.16;82.26
66871;DHT22;53780;44.998;9.926;2023-06-04T04:48:43;19.31;81.28
66871;DHT22;53780;44.998;9.926;2023-06-04T04:51:46;19.38;81.18
66871;DHT22;53780;44.998;9.926;2023-06-04T04:54:51;19.38;81.39
66871;DHT22;53780;44.998;9.926;2023-06-04T04:58:03;19.46;81.02
66871;DHT22;53780;44.998;9.926;2023-06-04T05:01:06;19.55;80.94
66871;DHT22;53780;44.998;9.926;2023-06-04T05:04:10;19.67;80.63
66871;DHT22;53780;44.998;9.926;2023-06-04T05:07:16;19.83;80.54
66871;DHT22;53780;44.998;9.926;2023-06-04T05:10:21;19.97;80.63
66871;DHT22;53780;44.998;9.926;2023-06-04T05:13:25;20.27;79.24
66871;DHT22;53780;44.998;9.926;2023-06-04T05:16:34;20.59;78.15
66871;DHT22;53780;44.998;9.926;2023-06-04T05:19:43;20.97;77.04
66871;DHT22;53780;44.998;9.926;2023-06-04T05:22:48;21.34;75.05
66871;DHT22;53780;44.998;9.926;2023-06-04T05:25:53;21.62;73.49
66871;DHT22;53780;44.998;9.926;2023-06-04T05:28:59;21.93;72.57
66871;DHT22;53780;44.998;9.926;2023-06-04T05:32:04;22.21;71.24
66871;DHT22;53780;44.998;9.926;2023-06-04T05:35:09;22.48;70.63
66871;DHT22;53780;44.998;9.926;2023-06-04T05:38:15;22.75;69.41
66871;DHT22;53780;44.998;9.926;2023-06-04T05:41:26;23.03;68.86
66871;DHT22;53780;44.998;9.926;2023-06-04T05:44:31;23.20;68.24
66871;DHT22;53780;44.998;9.926;2023-06-04T05:47:36;23.37;67.97
66871;DHT22;53780;44.998;9.926;2023-06-04T05:50:41;23.64;67.37
66871;DHT22;53780;44.998;9.926;2023-06-04T05:53:46;23.88;66.74
66871;DHT22;53780;44.998;9.926;2023-06-04T05:56:50;24.20;65.03
66871;DHT22;53780;44.998;9.926;2023-06-04T05:59:54;24.34;64.18
66871;DHT22;53780;44.998;9.926;2023-06-04T06:03:00;24.49;63.22
66871;DHT22;53780;44.998;9.926;2023-06-04T06:06:15;24.60;63.19
66871;DHT22;53780;44.998;9.926;2023-06-04T06:09:19;24.74;62.93
66871;DHT22;53780;44.998;9.926;2023-06-04T06:12:23;24.99;62.56
66871;DHT22;53780;44.998;9.926;2023-06-04T06:15:28;25.32;61.35
66871;DHT22;53780;44.998;9.926;2023-06-04T06:18:33;25.47;60.01
66871;DHT22;53780;44.998;9.926;2023-06-04T06:21:36;25.64;59.89
66871;DHT22;53780;44.998;9.926;2023-06-04T06:24:41;25.85;59.60
66871;DHT22;53780;44.998;9.926;2023-06-04T06:27:45;26.05;58.32
66871;DHT22;53780;44.998;9.926;2023-06-04T06:30:50;26.17;57.06
66871;DHT22;53780;44.998;9.926;2023-06-04T06:33:54;26.26;57.09
66871;DHT22;53780;44.998;9.926;2023-06-04T06:36:59;26.38;57.32
66871;DHT22;53780;44.998;9.926;2023-06-04T06:40:03;26.48;56.55
66871;DHT22;53780;44.998;9.926;2023-06-04T06:43:07;26.70;57.04
66871;DHT22;53780;44.998;9.926;2023-06-04T06:46:11;27.00;56.72
66871;DHT22;53780;44.998;9.926;2023-06-04T06:49:15;27.22;55.98
66871;DHT22;53780;44.998;9.926;2023-06-04T06:52:19;27.20;55.29
66871;DHT22;53780;44.998;9.926;2023-06-04T06:55:23;27.45;55.26
66871;DHT22;53780;44.998;9.926;2023-06-04T06:58:27;27.60;56.06
66871;DHT22;53780;44.998;9.926;2023-06-04T07:01:31;27.83;55.42
66871;DHT22;53780;44.998;9.926;2023-06-04T07:04:37;27.77;53.90
66871;DHT22;53780;44.998;9.926;2023-06-04T07:07:42;27.58;54.56
66871;DHT22;53780;44.998;9.926;2023-06-04T07:10:46;27.41;55.18
66871;DHT22;53780;44.998;9.926;2023-06-04T07:13:50;27.24;56.68
66871;DHT22;53780;44.998;9.926;2023-06-04T07:16:55;26.94;56.69
66871;DHT22;53780;44.998;9.926;2023-06-04T07:20:00;26.55;57.59
66871;DHT22;53780;44.998;9.926;2023-06-04T07:23:04;26.08;58.45
66871;DHT22;53780;44.998;9.926;2023-06-04T07:26:10;26.00;59.64
66871;DHT22;53780;44.998;9.926;2023-06-04T07:29:14;26.11;59.37
66871;DHT22;53780;44.998;9.926;2023-06-04T07:32:18;26.18;59.53
66871;DHT22;53780;44.998;9.926;2023-06-04T07:35:23;26.43;58.03
66871;DHT22;53780;44.998;9.926;2023-06-04T07:38:27;26.77;57.93
66871;DHT22;53780;44.998;9.926;2023-06-04T07:41:31;27.21;56.59
66871;DHT22;53780;44.998;9.926;2023-06-04T07:44:36;27.31;56.24
66871;DHT22;53780;44.998;9.926;2023-06-04T07:47:42;27.15;56.02
66871;DHT22;53780;44.998;9.926;2023-06-04T07:50:47;27.10;56.88
66871;DHT22;53780;44.998;9.926;2023-06-04T07:53:51;26.98;57.75
66871;DHT22;53780;44.998;9.926;2023-06-04T07:56:56;27.18;55.58
66871;DHT22;53780;44.998;9.926;2023-06-04T08:00:01;27.12;55.33
66871;DHT22;53780;44.998;9.926;2023-06-04T08:03:16;26.90;55.61
66871;DHT22;53780;44.998;9.926;2023-06-04T08:06:21;26.77;56.42
66871;DHT22;53780;44.998;9.926;2023-06-04T08:09:27;26.61;55.27
66871;DHT22;53780;44.998;9.926;2023-06-04T08:12:31;26.42;56.03
66871;DHT22;53780;44.998;9.926;2023-06-04T08:15:35;26.55;57.08
66871;DHT22;53780;44.998;9.926;2023-06-04T08:18:59;26.73;56.34
66871;DHT22;53780;44.998;9.926;2023-06-04T08:22:18;27.05;55.43
66871;DHT22;53780;44.998;9.926;2023-06-04T08:25:41;27.14;54.66
66871;DHT22;53780;44.998;9.926;2023-06-04T08:29:05;27.35;55.02
66871;DHT22;53780;44.998;9.926;2023-06-04T08:32:13;27.31;55.13
66871;DHT22;53780;44.998;9.926;2023-06-04T08:35:31;27.20;55.26
66871;DHT22;53780;44.998;9.926;2023-06-04T08:38:36;27.05;55.94
66871;DHT22;53780;44.998;9.926;2023-06-04T08:41:49;26.95;56.26
66871;DHT22;53780;44.998;9.926;2023-06-04T08:44:55;27.20;56.53
66871;DHT22;53780;44.998;9.926;2023-06-04T08:48:00;27.45;54.61
66871;DHT22;53780;44.998;9.926;2023-06-04T08:51:06;27.41;54.52
66871;DHT22;53780;44.998;9.926;2023-06-04T08:54:15;27.41;54.83
66871;DHT22;53780;44.998;9.926;2023-06-04T08:57:21;27.45;54.39
66871;DHT22;53780;44.998;9.926;2023-06-04T09:00:26;27.50;54.42
66871;DHT22;53780;44.998;9.926;2023-06-04T09:03:30;27.63;54.07
66871;DHT22;53780;44.998;9.926;2023-06-04T09:06:36;27.76;53.93
66871;DHT22;53780;44.998;9.926;2023-06-04T09:09:44;27.98;53.59
66871;DHT22;53780;44.998;9.926;2023-06-04T09:12:51;28.24;52.83
66871;DHT22;53780;44.998;9.926;2023-06-04T09:16:02;28.31;52.73
66871;DHT22;53780;44.998;9.926;2023-06-04T09:19:07;28.34;50.52
66871;DHT22;53780;44.998;9.926;2023-06-04T09:22:11;28.42;52.23
66871;DHT22;53780;44.998;9.926;2023-06-04T09:25:27;28.52;51.27
66871;DHT22;53780;44.998;9.926;2023-06-04T09:28:32;28.51;51.86
66871;DHT22;53780;44.998;9.926;2023-06-04T09:31:38;28.59;51.07
66871;DHT22;53780;44.998;9.926;2023-06-04T09:34:44;28.73;51.38
66871;DHT22;53780;44.998;9.926;2023-06-04T09:37:53;28.89;51.20
66871;DHT22;53780;44.998;9.926;2023-06-04T09:40:58;29.06;51.78
66871;DHT22;53780;44.998;9.926;2023-06-04T09:44:05;29.24;49.90
66871;DHT22;53780;44.998;9.926;2023-06-04T09:47:14;29.28;49.94
66871;DHT22;53780;44.998;9.926;2023-06-04T09:50:29;29.24;49.99
66871;DHT22;53780;44.998;9.926;2023-06-04T09:53:33;29.35;49.68
66871;DHT22;53780;44.998;9.926;2023-06-04T09:56:41;29.41;49.72
66871;DHT22;53780;44.998;9.926;2023-06-04T09:59:48;29.33;48.89
66871;DHT22;53780;44.998;9.926;2023-06-04T10:02:58;29.41;48.35
66871;DHT22;53780;44.998;9.926;2023-06-04T10:06:04;30.96;45.31
66871;DHT22;53780;44.998;9.926;2023-06-04T10:09:09;33.68;40.53
66871;DHT22;53780;44.998;9.926;2023-06-04T10:12:16;35.99;37.56
66871;DHT22;53780;44.998;9.926;2023-06-04T10:15:21;36.37;36.25
66871;DHT22;53780;44.998;9.926;2023-06-04T10:18:28;37.49;34.19
66871;DHT22;53780;44.998;9.926;2023-06-04T10:21:32;38.66;32.88
66871;DHT22;53780;44.998;9.926;2023-06-04T10:24:38;39.27;31.98
66871;DHT22;53780;44.998;9.926;2023-06-04T10:27:42;38.51;31.62
66871;DHT22;53780;44.998;9.926;2023-06-04T10:30:46;36.85;34.81
66871;DHT22;53780;44.998;9.926;2023-06-04T10:33:54;35.44;37.35
66871;DHT22;53780;44.998;9.926;2023-06-04T10:36:59;35.07;38.10
66871;DHT22;53780;44.998;9.926;2023-06-04T10:40:06;35.02;37.39
66871;DHT22;53780;44.998;9.926;2023-06-04T10:43:12;34.79;37.34
66871;DHT22;53780;44.998;9.926;2023-06-04T10:46:19;35.18;36.68
66871;DHT22;53780;44.998;9.926;2023-06-04T10:49:31;35.89;36.18
66871;DHT22;53780;44.998;9.926;2023-06-04T10:52:35;35.38;37.27
66871;DHT22;53780;44.998;9.926;2023-06-04T10:55:45;36.54;35.36
66871;DHT22;53780;44.998;9.926;2023-06-04T10:58:50;37.50;33.41
66871;DHT22;53780;44.998;9.926;2023-06-04T11:02:04;37.87;33.33
66871;DHT22;53780;44.998;9.926;2023-06-04T11:05:10;38.86;32.04
66871;DHT22;53780;44.998;9.926;2023-06-04T11:08:25;38.00;32.94
66871;DHT22;53780;44.998;9.926;2023-06-04T11:11:32;36.44;35.04
66871;DHT22;53780;44.998;9.926;2023-06-04T11:14:37;35.16;37.37
66871;DHT22;53780;44.998;9.926;2023-06-04T11:17:53;33.15;39.65
66871;DHT22;53780;44.998;9.926;2023-06-04T11:20:59;32.37;41.33
66871;DHT22;53780;44.998;9.926;2023-06-04T11:24:05;32.29;41.88
66871;DHT22;53780;44.998;9.926;2023-06-04T11:27:11;32.23;41.53
66871;DHT22;53780;44.998;9.926;2023-06-04T11:30:18;30.72;45.93
66871;DHT22;53780;44.998;9.926;2023-06-04T11:33:22;31.20;45.46
66871;DHT22;53780;44.998;9.926;2023-06-04T11:36:29;31.63;44.95
66871;DHT22;53780;44.998;9.926;2023-06-04T11:39:35;30.69;45.24
66871;DHT22;53780;44.998;9.926;2023-06-04T11:42:41;30.98;44.95
66871;DHT22;53780;44.998;9.926;2023-06-04T11:45:49;31.20;45.15
66871;DHT22;53780;44.998;9.926;2023-06-04T11:48:54;30.17;46.79
66871;DHT22;53780;44.998;9.926;2023-06-04T11:51:58;29.71;47.97
66871;DHT22;53780;44.998;9.926;2023-06-04T11:55:05;29.98;46.45
66871;DHT22;53780;44.998;9.926;2023-06-04T11:58:11;29.55;47.11
66871;DHT22;53780;44.998;9.926;2023-06-04T12:01:16;28.96;47.67
66871;DHT22;53780;44.998;9.926;2023-06-04T12:04:30;29.50;48.14
66871;DHT22;53780;44.998;9.926;2023-06-04T12:07:35;29.88;47.73
66871;DHT22;53780;44.998;9.926;2023-06-04T12:10:43;29.34;48.50
66871;DHT22;53780;44.998;9.926;2023-06-04T12:13:49;29.06;48.67
66871;DHT22;53780;44.998;9.926;2023-06-04T12:17:20;28.51;50.05
66871;DHT22;53780;44.998;9.926;2023-06-04T12:20:37;28.29;49.55
66871;DHT22;53780;44.998;9.926;2023-06-04T12:23:41;28.97;47.18
66871;DHT22;53780;44.998;9.926;2023-06-04T12:26:47;29.35;47.88
66871;DHT22;53780;44.998;9.926;2023-06-04T12:30:03;29.11;48.35
66871;DHT22;53780;44.998;9.926;2023-06-04T12:33:13;29.06;47.92
66871;DHT22;53780;44.998;9.926;2023-06-04T12:36:17;28.70;48.44
66871;DHT22;53780;44.998;9.926;2023-06-04T12:39:22;28.08;50.35
66871;DHT22;53780;44.998;9.926;2023-06-04T12:42:28;28.24;50.46
66871;DHT22;53780;44.998;9.926;2023-06-04T12:45:33;28.03;50.30
66871;DHT22;53780;44.998;9.926;2023-06-04T12:48:39;28.17;49.05
66871;DHT22;53780;44.998;9.926;2023-06-04T12:51:44;27.94;49.62
66871;DHT22;53780;44.998;9.926;2023-06-04T12:54:49;27.79;50.04
66871;DHT22;53780;44.998;9.926;2023-06-04T12:57:53;27.76;51.04
66871;DHT22;53780;44.998;9.926;2023-06-04T13:00:59;27.83;50.66
66871;DHT22;53780;44.998;9.926;2023-06-04T13:04:04;28.04;49.72
66871;DHT22;53780;44.998;9.926;2023-06-04T13:07:12;28.10;49.70
66871;DHT22;53780;44.998;9.926;2023-06-04T13:10:18;28.21;49.83
66871;DHT22;53780;44.998;9.926;2023-06-04T13:13:22;28.07;49.85
66871;DHT22;53780;44.998;9.926;2023-06-04T13:16:30;28.14;50.45
66871;DHT22;53780;44.998;9.926;2023-06-04T13:19:38;28.24;49.50
66871;DHT22;53780;44.998;9.926;2023-06-04T13:22:45;28.40;48.76
66871;DHT22;53780;44.998;9.926;2023-06-04T13:25:49;28.15;49.68
66871;DHT22;53780;44.998;9.926;2023-06-04T13:28:54;28.07;49.49
66871;DHT22;53780;44.998;9.926;2023-06-04T13:32:00;28.17;49.34
66871;DHT22;53780;44.998;9.926;2023-06-04T13:35:07;28.18;48.53
66871;DHT22;53780;44.998;9.926;2023-06-04T13:38:14;28.18;49.00
66871;DHT22;53780;44.998;9.926;2023-06-04T13:41:22;28.00;48.95
66871;DHT22;53780;44.998;9.926;2023-06-04T13:44:27;28.00;47.97
66871;DHT22;53780;44.998;9.926;2023-06-04T13:47:33;27.93;48.98
66871;DHT22;53780;44.998;9.926;2023-06-04T13:50:42;27.90;48.45
66871;DHT22;53780;44.998;9.926;2023-06-04T13:53:47;27.80;49.20
66871;DHT22;53780;44.998;9.926;2023-06-04T13:56:52;27.73;49.66
66871;DHT22;53780;44.998;9.926;2023-06-04T13:59:57;27.73;49.19
66871;DHT22;53780;44.998;9.926;2023-06-04T14:03:01;27.89;49.92
66871;DHT22;53780;44.998;9.926;2023-06-04T14:06:07;28.04;49.43
66871;DHT22;53780;44.998;9.926;2023-06-04T14:09:13;28.10;49.20
66871;DHT22;53780;44.998;9.926;2023-06-04T14:12:17;28.22;49.40
66871;DHT22;53780;44.998;9.926;2023-06-04T14:15:23;28.34;48.79
66871;DHT22;53780;44.998;9.926;2023-06-04T14:18:29;28.44;48.80
66871;DHT22;53780;44.998;9.926;2023-06-04T14:21:35;28.61;48.22
66871;DHT22;53780;44.998;9.926;2023-06-04T14:24:42;28.58;47.73
66871;DHT22;53780;44.998;9.926;2023-06-04T14:27:47;28.52;47.88
66871;DHT22;53780;44.998;9.926;2023-06-04T14:30:51;28.58;48.10
66871;DHT22;53780;44.998;9.926;2023-06-04T14:33:56;28.62;48.30
66871;DHT22;53780;44.998;9.926;2023-06-04T14:37:02;28.41;48.63
66871;DHT22;53780;44.998;9.926;2023-06-04T14:40:07;28.31;49.38
66871;DHT22;53780;44.998;9.926;2023-06-04T14:43:14;28.44;50.61
66871;DHT22;53780;44.998;9.926;2023-06-04T14:46:18;28.61;49.73
66871;DHT22;53780;44.998;9.926;2023-06-04T14:49:24;28.84;50.53
66871;DHT22;53780;44.998;9.926;2023-06-04T14:52:28;28.90;50.46
66871;DHT22;53780;44.998;9.926;2023-06-04T14:55:33;28.27;49.30
66871;DHT22;53780;44.998;9.926;2023-06-04T14:58:39;28.01;50.18
66871;DHT22;53780;44.998;9.926;2023-06-04T15:01:43;27.79;52.68
66871;DHT22;53780;44.998;9.926;2023-06-04T15:04:50;27.50;56.59
66871;DHT22;53780;44.998;9.926;2023-06-04T15:07:56;26.73;56.91
66871;DHT22;53780;44.998;9.926;2023-06-04T15:11:02;26.02;58.68
66871;DHT22;53780;44.998;9.926;2023-06-04T15:14:08;25.64;60.27
66871;DHT22;53780;44.998;9.926;2023-06-04T15:17:13;25.43;60.74
66871;DHT22;53780;44.998;9.926;2023-06-04T15:20:17;24.95;62.55
66871;DHT22;53780;44.998;9.926;2023-06-04T15:23:22;24.36;63.65
66871;DHT22;53780;44.998;9.926;2023-06-04T15:26:28;24.08;63.95
66871;DHT22;53780;44.998;9.926;2023-06-04T15:29:35;24.09;63.85
66871;DHT22;53780;44.998;9.926;2023-06-04T15:32:40;24.09;63.88
66871;DHT22;53780;44.998;9.926;2023-06-04T15:35:48;24.02;62.69
66871;DHT22;53780;44.998;9.926;2023-06-04T15:38:53;23.90;64.28
66871;DHT22;53780;44.998;9.926;2023-06-04T15:41:58;24.10;64.23
66871;DHT22;53780;44.998;9.926;2023-06-04T15:45:08;23.98;64.05
66871;DHT22;53780;44.998;9.926;2023-06-04T16:24:30;23.61;66.16
66871;DHT22;53780;44.998;9.926;2023-06-04T16:27:49;23.81;66.02
66871;DHT22;53780;44.998;9.926;2023-06-04T16:30:57;23.95;64.40
66871;DHT22;53780;44.998;9.926;2023-06-04T16:34:05;23.92;65.69
66871;DHT22;53780;44.998;9.926;2023-06-04T16:37:24;23.85;66.17
66871;DHT22;53780;44.998;9.926;2023-06-04T16:40:36;23.31;67.76
66871;DHT22;53780;44.998;9.926;2023-06-04T16:43:42;23.46;69.32
66871;DHT22;53780;44.998;9.926;2023-06-04T16:46:50;23.26;69.24
66871;DHT22;53780;44.998;9.926;2023-06-04T16:49:55;22.96;70.48
66871;DHT22;53780;44.998;9.926;2023-06-04T16:52:59;22.69;70.85
66871;DHT22;53780;44.998;9.926;2023-06-04T16:56:03;22.58;70.06
66871;DHT22;53780;44.998;9.926;2023-06-04T16:59:08;22.81;70.95
66871;DHT22;53780;44.998;9.926;2023-06-04T17:02:13;22.86;70.03
66871;DHT22;53780;44.998;9.926;2023-06-04T17:05:20;23.07;69.41
66871;DHT22;53780;44.998;9.926;2023-06-04T17:08:25;23.33;69.02
66871;DHT22;53780;44.998;9.926;2023-06-04T17:11:29;23.30;66.74
66871;DHT22;53780;44.998;9.926;2023-06-04T17:14:35;23.26;64.70
66871;DHT22;53780;44.998;9.926;2023-06-04T17:17:39;23.14;65.02
66871;DHT22;53780;44.998;9.926;2023-06-04T17:20:43;22.95;66.49
66871;DHT22;53780;44.998;9.926;2023-06-04T17:23:47;22.92;66.17
66871;DHT22;53780;44.998;9.926;2023-06-04T17:26:52;22.45;67.14
66871;DHT22;53780;44.998;9.926;2023-06-04T17:29:56;22.25;68.35
66871;DHT22;53780;44.998;9.926;2023-06-04T17:33:02;22.22;68.54
66871;DHT22;53780;44.998;9.926;2023-06-04T17:36:07;21.90;68.79
66871;DHT22;53780;44.998;9.926;2023-06-04T17:39:11;21.73;68.93
66871;DHT22;53780;44.998;9.926;2023-06-04T17:42:15;21.72;69.46
66871;DHT22;53780;44.998;9.926;2023-06-04T17:45:20;21.73;69.49
66871;DHT22;53780;44.998;9.926;2023-06-04T17:48:26;21.54;69.28
66871;DHT22;53780;44.998;9.926;2023-06-04T17:51:30;21.30;70.46
66871;DHT22;53780;44.998;9.926;2023-06-04T17:54:35;21.21;69.77
66871;DHT22;53780;44.998;9.926;2023-06-04T17:57:39;20.90;70.56
66871;DHT22;53780;44.998;9.926;2023-06-04T18:00:42;20.73;71.87
66871;DHT22;53780;44.998;9.926;2023-06-04T18:03:47;20.72;72.36
66871;DHT22;53780;44.998;9.926;2023-06-04T18:06:53;20.84;71.65
66871;DHT22;53780;44.998;9.926;2023-06-04T18:09:57;20.83;71.65
66871;DHT22;53780;44.998;9.926;2023-06-04T18:13:00;20.71;71.46
66871;DHT22;53780;44.998;9.926;2023-06-04T18:16:05;20.51;71.79
66871;DHT22;53780;44.998;9.926;2023-06-04T18:19:10;20.65;71.06
66871;DHT22;53780;44.998;9.926;2023-06-04T18:22:16;20.66;71.68
66871;DHT22;53780;44.998;9.926;2023-06-04T18:25:22;20.53;72.98
66871;DHT22;53780;44.998;9.926;2023-06-04T18:28:27;19.98;76.58
66871;DHT22;53780;44.998;9.926;2023-06-04T18:31:34;19.89;77.79
66871;DHT22;53780;44.998;9.926;2023-06-04T18:34:37;19.63;78.43
66871;DHT22;53780;44.998;9.926;2023-06-04T18:37:45;19.62;78.25
66871;DHT22;53780;44.998;9.926;2023-06-04T18:40:50;19.53;77.98
66871;DHT22;53780;44.998;9.926;2023-06-04T18:43:58;19.50;78.40
66871;DHT22;53780;44.998;9.926;2023-06-04T18:47:03;19.32;79.55
66871;DHT22;53780;44.998;9.926;2023-06-04T18:50:08;19.21;80.29
66871;DHT22;53780;44.998;9.926;2023-06-04T18:53:14;19.25;80.03
66871;DHT22;53780;44.998;9.926;2023-06-04T18:56:20;19.41;80.94
66871;DHT22;53780;44.998;9.926;2023-06-04T18:59:24;19.53;79.85
66871;DHT22;53780;44.998;9.926;2023-06-04T19:02:30;19.67;80.33
66871;DHT22;53780;44.998;9.926;2023-06-04T19:05:33;19.71;80.41
66871;DHT22;53780;44.998;9.926;2023-06-04T19:08:39;19.79;80.56
66871;DHT22;53780;44.998;9.926;2023-06-04T19:11:44;19.73;80.76
66871;DHT22;53780;44.998;9.926;2023-06-04T19:14:49;19.74;80.78
66871;DHT22;53780;44.998;9.926;2023-06-04T19:18:08;19.86;79.63
66871;DHT22;53780;44.998;9.926;2023-06-04T19:21:15;19.74;81.17
66871;DHT22;53780;44.998;9.926;2023-06-04T19:24:20;19.70;82.29
66871;DHT22;53780;44.998;9.926;2023-06-04T19:27:27;19.63;83.17
66871;DHT22;53780;44.998;9.926;2023-06-04T19:30:31;19.55;83.80
66871;DHT22;53780;44.998;9.926;2023-06-04T19:33:37;19.48;83.81
66871;DHT22;53780;44.998;9.926;2023-06-04T19:36:44;19.43;84.15
66871;DHT22;53780;44.998;9.926;2023-06-04T19:39:47;19.39;84.47
66871;DHT22;53780;44.998;9.926;2023-06-04T19:42:53;19.52;85.58
66871;DHT22;53780;44.998;9.926;2023-06-04T19:45:56;19.60;84.70
66871;DHT22;53780;44.998;9.926;2023-06-04T19:49:05;19.71;84.05
66871;DHT22;53780;44.998;9.926;2023-06-04T19:52:12;19.83;82.96
66871;DHT22;53780;44.998;9.926;2023-06-04T19:55:18;19.79;81.80
66871;DHT22;53780;44.998;9.926;2023-06-04T19:58:21;19.79;80.42
66871;DHT22;53780;44.998;9.926;2023-06-04T20:01:29;19.77;80.93
66871;DHT22;53780;44.998;9.926;2023-06-04T20:04:33;19.81;80.87
66871;DHT22;53780;44.998;9.926;2023-06-04T20:07:39;19.80;80.72
66871;DHT22;53780;44.998;9.926;2023-06-04T20:10:44;19.84;80.95